Time;durP1;ratioP1;P1;durP2;ratioP2;P2;SDS_P1;SDS_P2;PMS_P1;PMS_P2;Temp;Humidity;BMP_temperature;BMP_pressure;BME280_temperature;BME280_humidity;BME280_pressure;Samples;Min_cycle;Max_cycle;Signal;HPM_P1;HPM_P2
2022/04/25 00:01:54;;;;;;;21.35;8.73;;;;;;;9.10;90.83;100709.13;5053666;28;20036;-65
2022/04/25 00:04:19;;;;;;;21.20;8.90;;;;;;;9.06;91.33;100709.97;5053366;28;20107;-65
2022/04/25 00:06:45;;;;;;;21.50;8.93;;;;;;;8.83;92.91;100709.78;5053331;28;20033;-65
2022/04/25 00:09:10;;;;;;;22.02;8.80;;;;;;;8.74;95.46;100713.19;5053646;28;20159;-65
2022/04/25 00:11:35;;;;;;;21.38;9.23;;;;;;;8.71;96.10;100716.69;5053085;28;20048;-66
2022/04/25 00:14:01;;;;;;;21.02;9.23;;;;;;;8.60;97.73;100712.16;5053734;28;20519;-66
2022/04/25 00:16:26;;;;;;;22.20;9.35;;;;;;;8.48;99.36;100718.19;5053238;28;20475;-66
2022/04/25 00:18:52;;;;;;;22.55;9.32;;;;;;;8.36;100.00;100713.66;5052999;28;20383;-63
2022/04/25 00:21:17;;;;;;;21.88;9.63;;;;;;;8.25;100.00;100726.66;5053504;28;20112;-64
2022/04/25 00:23:43;;;;;;;21.73;9.23;;;;;;;8.29;100.00;100722.34;5053052;28;20464;-65
2022/04/25 00:26:09;;;;;;;22.23;9.57;;;;;;;8.19;100.00;100726.59;5053096;28;20483;-63
2022/04/25 00:28:34;;;;;;;22.85;9.93;;;;;;;8.15;100.00;100724.78;5053137;28;20017;-65
2022/04/25 00:30:59;;;;;;;21.98;9.90;;;;;;;8.11;100.00;100722.97;5052961;28;20041;-63
2022/04/25 00:33:26;;;;;;;23.23;9.85;;;;;;;8.12;100.00;100730.03;5053160;28;20040;-63
2022/04/25 00:35:52;;;;;;;23.85;9.82;;;;;;;7.98;100.00;100725.47;5053288;28;20040;-63
2022/04/25 00:38:17;;;;;;;21.45;9.93;;;;;;;7.95;100.00;100722.81;5052983;28;20376;-64
2022/04/25 00:40:43;;;;;;;22.10;9.80;;;;;;;7.82;100.00;100718.22;5052811;28;20029;-63
2022/04/25 00:43:08;;;;;;;22.52;9.95;;;;;;;7.83;100.00;100720.00;5052935;28;20452;-63
2022/04/25 00:45:34;;;;;;;24.63;10.43;;;;;;;7.74;100.00;100722.50;5052867;28;20060;-63
2022/04/25 00:48:00;;;;;;;23.17;10.25;;;;;;;7.77;100.00;100723.41;5052706;28;20442;-63
2022/04/25 00:50:25;;;;;;;22.17;10.23;;;;;;;7.70;100.00;100720.69;5052709;28;20033;-63
2022/04/25 00:52:51;;;;;;;23.45;10.70;;;;;;;7.61;100.00;100722.31;5052841;28;20029;-63
2022/04/25 00:55:17;;;;;;;22.80;10.57;;;;;;;7.60;100.00;100724.94;5052501;28;20486;-64
2022/04/25 00:57:42;;;;;;;23.67;10.75;;;;;;;7.57;100.00;100723.16;5052854;28;20040;-63
2022/04/25 01:00:10;;;;;;;24.30;10.73;;;;;;;7.54;100.00;100720.47;5052423;28;20028;-63
2022/04/25 01:02:36;;;;;;;22.40;10.65;;;;;;;7.68;100.00;100720.66;5048692;28;20029;-63
2022/04/25 01:05:04;;;;;;;22.65;10.60;;;;;;;7.55;100.00;100722.25;5052378;28;20479;-64
2022/04/25 01:07:30;;;;;;;22.10;10.60;;;;;;;7.55;100.00;100719.59;5052411;28;20464;-63
2022/04/25 01:09:56;;;;;;;23.10;11.00;;;;;;;7.42;100.00;100721.16;5052592;28;20029;-64
2022/04/25 01:12:21;;;;;;;23.50;11.15;;;;;;;7.35;100.00;100713.16;5052327;28;20056;-64
2022/04/25 01:14:55;;;;;;;22.83;10.90;;;;;;;7.38;100.00;100721.09;5052465;28;20155;-63
2022/04/25 01:17:20;;;;;;;23.15;11.48;;;;;;;7.30;100.00;100716.59;5052427;28;20036;-63
2022/04/25 01:19:46;;;;;;;23.77;11.60;;;;;;;7.39;100.00;100715.00;5052438;28;20025;-62
2022/04/25 01:22:14;;;;;;;24.02;12.15;;;;;;;7.24;100.00;100721.78;5052668;28;20349;-63
2022/04/25 01:27:24;;;;;;;23.98;11.88;;;;;;;7.12;100.00;100711.03;5051075;28;20040;-65
2022/04/25 01:29:52;;;;;;;23.50;12.27;;;;;;;7.11;100.00;100719.81;5051167;28;20041;-65
2022/04/25 01:32:19;;;;;;;24.50;11.98;;;;;;;7.07;100.00;100710.97;5052207;28;20021;-66
2022/04/25 01:34:45;;;;;;;23.52;12.60;;;;;;;7.03;100.00;100719.66;5052521;28;20108;-65
2022/04/25 01:37:13;;;;;;;25.23;12.30;;;;;;;7.07;100.00;100712.72;5052361;28;20495;-65
2022/04/25 01:39:41;;;;;;;23.90;12.20;;;;;;;7.00;100.00;100721.38;5052196;28;20033;-66
2022/04/25 01:42:07;;;;;;;24.98;12.35;;;;;;;7.02;100.00;100723.16;5048187;28;20468;-66
2022/04/25 01:44:34;;;;;;;24.92;12.32;;;;;;;6.94;100.00;100719.50;5052388;28;20068;-66
2022/04/25 01:47:00;;;;;;;24.35;12.35;;;;;;;6.88;100.00;100717.66;5052316;28;20429;-65
2022/04/25 01:49:25;;;;;;;24.63;13.02;;;;;;;6.89;100.00;100726.44;5052254;28;20068;-66
2022/04/25 01:51:50;;;;;;;24.88;13.45;;;;;;;6.87;100.00;100721.13;5052310;28;20029;-65
2022/04/25 01:54:23;;;;;;;23.83;12.88;;;;;;;6.82;100.00;100724.56;5052081;28;20392;-66
2022/04/25 01:56:48;;;;;;;24.65;13.40;;;;;;;6.78;100.00;100728.88;5052356;28;20025;-66
2022/04/25 01:59:14;;;;;;;25.10;13.18;;;;;;;6.75;100.00;100720.94;5052247;28;20021;-65
2022/04/25 02:01:39;;;;;;;25.63;13.57;;;;;;;6.76;100.00;100717.47;5050449;28;20037;-66
2022/04/25 02:04:04;;;;;;;23.83;13.35;;;;;;;6.72;100.00;100732.25;5052018;28;20024;-66
2022/04/25 02:06:30;;;;;;;26.85;13.80;;;;;;;6.66;100.00;100723.41;5052123;28;20035;-66
2022/04/25 02:08:55;;;;;;;24.73;13.30;;;;;;;6.70;100.00;100720.84;5055079;28;20033;-66
2022/04/25 02:11:21;;;;;;;26.10;14.02;;;;;;;6.56;100.00;100724.97;5055620;28;20064;-66
2022/04/25 02:13:51;;;;;;;25.45;13.15;;;;;;;6.56;100.00;100725.84;5056004;28;20029;-66
2022/04/25 02:16:21;;;;;;;24.40;13.50;;;;;;;6.48;100.00;100723.94;5055521;28;20021;-66
2022/04/25 02:18:48;;;;;;;24.58;13.80;;;;;;;6.51;100.00;100721.34;5055737;28;20033;-66
2022/04/25 02:21:13;;;;;;;26.50;14.38;;;;;;;6.48;100.00;100722.22;5055656;28;20029;-65
2022/04/25 02:23:39;;;;;;;25.10;13.80;;;;;;;6.42;100.00;100724.69;5055667;28;20052;-66
2022/04/25 02:26:05;;;;;;;26.02;13.65;;;;;;;6.37;100.00;100724.59;5055363;28;20025;-62
2022/04/25 02:28:31;;;;;;;25.08;14.27;;;;;;;6.38;100.00;100725.50;5055470;28;20386;-63
2022/04/25 02:30:57;;;;;;;27.00;14.45;;;;;;;6.34;100.00;100718.44;5055090;28;20108;-63
2022/04/25 02:33:23;;;;;;;25.30;14.27;;;;;;;6.32;100.00;100715.78;5055561;28;20029;-63
2022/04/25 02:35:49;;;;;;;26.60;14.90;;;;;;;6.35;100.00;100718.44;5055548;28;20033;-63
2022/04/25 02:38:15;;;;;;;24.90;14.23;;;;;;;6.23;100.00;100719.09;5055063;28;20052;-64
2022/04/25 02:40:40;;;;;;;26.67;14.38;;;;;;;6.24;100.00;100719.97;5053877;28;20084;-63
2022/04/25 02:43:05;;;;;;;26.17;14.50;;;;;;;6.25;100.00;100724.38;5054896;28;20023;-64
2022/04/25 02:45:31;;;;;;;26.67;15.07;;;;;;;6.15;100.00;100725.03;5054938;28;20036;-63
2022/04/25 02:47:56;;;;;;;26.15;14.35;;;;;;;6.17;100.00;100726.81;5055273;28;20021;-64
2022/04/25 02:50:21;;;;;;;27.15;14.88;;;;;;;6.16;100.00;100721.53;5054791;28;20033;-64
2022/04/25 02:52:47;;;;;;;26.02;15.18;;;;;;;6.04;100.00;100720.47;5054784;28;20024;-65
2022/04/25 02:55:12;;;;;;;25.88;14.88;;;;;;;6.00;100.00;100717.72;5053648;28;20033;-63
2022/04/25 02:57:37;;;;;;;27.52;15.40;;;;;;;6.01;100.00;100714.25;5054775;28;20057;-63
2022/04/25 03:00:04;;;;;;;26.90;15.65;;;;;;;5.94;100.00;100719.34;5053287;28;20045;-64
2022/04/25 03:02:30;;;;;;;25.60;15.23;;;;;;;5.95;100.00;100720.22;5054648;28;20028;-64
2022/04/25 03:04:55;;;;;;;28.83;15.25;;;;;;;5.94;100.00;100715.81;5054681;28;20120;-66
2022/04/25 03:07:20;;;;;;;27.02;15.57;;;;;;;5.91;100.00;100724.53;5054903;28;20036;-64
2022/04/25 03:09:46;;;;;;;26.88;15.70;;;;;;;5.88;100.00;100718.31;5054588;28;20017;-65
2022/04/25 03:12:11;;;;;;;27.13;15.45;;;;;;;5.88;100.00;100713.06;5054395;28;20052;-65
2022/04/25 03:14:36;;;;;;;27.70;16.08;;;;;;;5.78;100.00;100714.59;5036703;28;20078;-66
2022/04/25 03:17:02;;;;;;;27.80;16.63;;;;;;;5.73;100.00;100718.88;5054264;28;20116;-66
2022/04/25 03:19:27;;;;;;;27.23;16.73;;;;;;;5.72;100.00;100717.09;5054160;28;20029;-66
2022/04/25 03:21:53;;;;;;;28.02;16.55;;;;;;;5.66;100.00;100709.97;5054540;28;20032;-66
2022/04/25 03:24:18;;;;;;;27.40;16.70;;;;;;;5.73;100.00;100713.63;5054465;28;20052;-66
2022/04/25 03:26:44;;;;;;;29.85;17.23;;;;;;;5.61;100.00;100713.34;5054114;28;20366;-65
2022/04/25 03:29:10;;;;;;;28.08;16.67;;;;;;;5.62;100.00;100715.13;5054380;28;20076;-65
2022/04/25 03:31:36;;;;;;;27.17;16.58;;;;;;;5.65;100.00;100715.19;5054135;28;20387;-66
2022/04/25 03:34:02;;;;;;;28.48;17.48;;;;;;;5.64;100.00;100718.69;5053826;28;20025;-65
2022/04/25 03:36:27;;;;;;;28.52;17.30;;;;;;;5.62;100.00;100721.28;5054170;28;20427;-66
2022/04/25 03:38:53;;;;;;;29.00;17.13;;;;;;;5.62;100.00;100728.22;5053836;28;20017;-65
2022/04/25 03:41:19;;;;;;;28.95;17.25;;;;;;;5.51;100.00;100718.38;5054025;28;20044;-66
2022/04/25 03:43:44;;;;;;;27.83;17.77;;;;;;;5.46;100.00;100722.66;5053981;28;20029;-66
2022/04/25 03:46:10;;;;;;;29.15;17.50;;;;;;;5.47;100.00;100724.41;5053680;28;20028;-66
2022/04/25 03:48:35;;;;;;;27.40;17.95;;;;;;;5.49;100.00;100729.69;5053721;28;20025;-66
2022/04/25 03:51:00;;;;;;;28.67;18.08;;;;;;;5.52;100.00;100730.66;5054115;28;20519;-66
2022/04/25 03:53:26;;;;;;;28.27;17.98;;;;;;;5.50;100.00;100734.97;5053654;28;20033;-66
2022/04/25 03:58:35;;;;;;;29.55;17.90;;;;;;;5.43;100.00;100733.03;5053756;28;20040;-66
2022/04/25 04:01:02;;;;;;;29.48;18.20;;;;;;;5.40;100.00;100730.34;5052046;28;20415;-65
2022/04/25 04:03:28;;;;;;;29.15;19.05;;;;;;;5.40;100.00;100731.25;5053559;28;20418;-65
2022/04/25 04:05:54;;;;;;;29.67;18.48;;;;;;;5.37;100.00;100738.16;5053899;28;20025;-66
2022/04/25 04:08:20;;;;;;;28.25;18.20;;;;;;;5.37;100.00;100741.69;5053561;28;20494;-66
2022/04/25 04:10:45;;;;;;;28.77;18.52;;;;;;;5.34;100.00;100735.44;5053147;28;20053;-66
2022/04/25 04:13:11;;;;;;;29.02;19.13;;;;;;;5.31;100.00;100743.25;5053591;28;20111;-66
2022/04/25 04:15:37;;;;;;;30.42;19.60;;;;;;;5.32;100.00;100738.03;5053292;28;20096;-66
2022/04/25 04:18:04;;;;;;;31.70;18.80;;;;;;;5.29;100.00;100737.97;5053132;28;20048;-65
2022/04/25 04:20:30;;;;;;;30.95;19.40;;;;;;;5.32;100.00;100747.66;5053486;28;20037;-64
2022/04/25 04:22:55;;;;;;;29.60;19.65;;;;;;;5.28;100.00;100756.28;5053366;28;20487;-65
2022/04/25 04:25:22;;;;;;;31.65;19.23;;;;;;;5.25;100.00;100751.84;5053143;28;20072;-64
2022/04/25 04:27:48;;;;;;;31.77;21.00;;;;;;;5.24;100.00;100745.72;5053178;28;20017;-63
2022/04/25 04:30:15;;;;;;;32.85;20.50;;;;;;;5.28;100.00;100751.03;5051145;28;20123;-63
2022/04/25 04:32:41;;;;;;;31.65;20.40;;;;;;;5.15;100.00;100753.34;5052964;28;20428;-63
2022/04/25 04:36:17;;;;;;;32.35;20.63;;;;;;;5.14;100.00;100753.31;5052978;28;20387;-63
2022/04/25 04:38:05;;;;;;;32.63;20.88;;;;;;;5.05;100.00;100754.88;5052185;28;20041;-63
2022/04/25 04:40:30;;;;;;;31.58;20.63;;;;;;;5.14;100.00;100762.06;5052917;28;20017;-64
2022/04/25 04:42:57;;;;;;;31.17;20.80;;;;;;;5.13;100.00;100757.69;5052739;28;20376;-64
2022/04/25 04:45:23;;;;;;;31.98;20.88;;;;;;;5.15;100.00;100763.81;5052808;28;20025;-65
2022/04/25 04:47:49;;;;;;;32.67;21.27;;;;;;;5.09;100.00;100761.06;5053151;28;20483;-64
2022/04/25 04:50:15;;;;;;;31.77;20.35;;;;;;;5.11;100.00;100764.63;5052778;28;20029;-64
2022/04/25 04:52:49;;;;;;;32.10;21.30;;;;;;;5.13;100.00;100773.41;5053198;28;20086;-63
2022/04/25 04:55:14;;;;;;;31.27;21.05;;;;;;;5.14;100.00;100772.56;5049616;28;20383;-65
2022/04/25 04:57:40;;;;;;;31.77;20.77;;;;;;;5.18;100.00;100779.63;5052694;28;20017;-64
2022/04/25 05:00:08;;;;;;;33.83;21.75;;;;;;;5.20;100.00;100775.31;5052284;28;20028;-63
2022/04/25 05:02:34;;;;;;;32.13;21.67;;;;;;;5.17;100.00;100770.00;5052868;28;20033;-64
2022/04/25 05:04:59;;;;;;;32.17;21.70;;;;;;;5.22;100.00;100783.22;5052513;28;20029;-65
2022/04/25 05:07:25;;;;;;;32.20;21.70;;;;;;;5.26;100.00;100789.41;5052390;28;20025;-64
2022/04/25 05:09:51;;;;;;;32.75;21.27;;;;;;;5.32;100.00;100785.22;5052598;28;20039;-64
2022/04/25 05:12:16;;;;;;;32.58;22.33;;;;;;;5.44;100.00;100799.50;5052172;28;20048;-64
2022/04/25 05:14:42;;;;;;;31.58;22.20;;;;;;;5.56;100.00;100794.53;5052795;28;20017;-64
2022/04/25 05:17:07;;;;;;;32.20;20.95;;;;;;;5.72;100.00;100795.78;5052243;28;20379;-65
2022/04/25 05:19:32;;;;;;;32.08;20.85;;;;;;;5.86;100.00;100794.38;5052625;28;20032;-64
2022/04/25 05:21:58;;;;;;;31.63;20.27;;;;;;;6.03;100.00;100796.50;5052468;28;20029;-63
2022/04/25 05:24:23;;;;;;;32.08;20.75;;;;;;;6.09;100.00;100802.78;5052390;28;20044;-66
2022/04/25 05:26:48;;;;;;;31.65;21.27;;;;;;;6.11;100.00;100801.06;5052634;28;20017;-66
2022/04/25 05:29:17;;;;;;;31.92;20.50;;;;;;;6.25;100.00;100801.38;5052444;28;20086;-65
2022/04/25 05:31:42;;;;;;;33.40;20.75;;;;;;;6.32;100.00;100805.03;5052203;28;20085;-66
2022/04/25 05:34:09;;;;;;;32.55;20.40;;;;;;;6.44;100.00;100807.91;5052396;28;20456;-65
2022/04/25 05:36:34;;;;;;;31.15;20.10;;;;;;;6.50;100.00;100808.91;5052548;28;20032;-66
2022/04/25 05:38:59;;;;;;;30.40;19.73;;;;;;;6.59;100.00;100815.19;5052235;28;20384;-66
2022/04/25 05:41:25;;;;;;;31.60;20.17;;;;;;;6.68;100.00;100813.63;5052134;28;20388;-66
2022/04/25 05:43:50;;;;;;;30.08;19.58;;;;;;;6.80;100.00;100817.38;5053979;28;20344;-65
2022/04/25 05:46:15;;;;;;;29.58;19.27;;;;;;;6.88;100.00;100828.03;5055952;28;20086;-66
2022/04/25 05:54:10;;;;;;;30.73;20.27;;;;;;;6.99;100.00;100833.50;5045099;28;20040;-67
2022/04/25 05:56:36;;;;;;;30.42;19.40;;;;;;;7.11;100.00;100835.47;5053325;28;20116;-68
2022/04/25 05:59:01;;;;;;;30.85;20.02;;;;;;;7.13;100.00;100833.75;5047650;28;20254;-68
2022/04/25 06:01:26;;;;;;;31.88;20.38;;;;;;;7.25;100.00;100838.34;5051833;28;20037;-69
2022/04/25 06:03:51;;;;;;;29.98;19.38;;;;;;;7.31;100.00;100835.81;5047858;28;20115;-69
2022/04/25 06:06:21;;;;;;;32.45;20.40;;;;;;;7.36;100.00;100847.31;5050123;28;20403;-68
2022/04/25 06:08:46;;;;;;;30.05;19.80;;;;;;;7.47;100.00;100839.59;5048492;28;20029;-68
2022/04/25 06:11:12;;;;;;;31.45;20.75;;;;;;;7.48;100.00;100842.28;5045051;28;20036;-67
2022/04/25 06:13:37;;;;;;;31.25;20.88;;;;;;;7.47;100.00;100850.13;5051120;28;20088;-68
2022/04/25 06:16:03;;;;;;;31.50;20.55;;;;;;;7.52;100.00;100853.72;5049491;28;20423;-67
2022/04/25 06:18:28;;;;;;;32.13;20.83;;;;;;;7.58;100.00;100856.44;5047799;28;20029;-67
2022/04/25 06:20:54;;;;;;;32.22;21.80;;;;;;;7.60;100.00;100857.38;5050663;28;20027;-67
2022/04/25 06:23:19;;;;;;;30.33;20.63;;;;;;;7.63;100.00;100852.16;5049035;28;20048;-66
2022/04/25 06:25:44;;;;;;;32.03;21.33;;;;;;;7.75;100.00;100854.09;5046778;28;20482;-69
2022/04/25 06:28:10;;;;;;;30.70;21.10;;;;;;;7.73;100.00;100861.06;5050005;28;20044;-67
2022/04/25 06:30:35;;;;;;;32.50;21.02;;;;;;;7.78;100.00;100858.53;5049748;28;20024;-66
2022/04/25 06:33:01;;;;;;;31.20;19.83;;;;;;;7.84;100.00;100858.63;5048704;28;20112;-69
2022/04/25 06:35:29;;;;;;;31.35;21.20;;;;;;;7.85;100.00;100857.78;5049593;28;20033;-69
2022/04/25 06:37:55;;;;;;;31.48;21.00;;;;;;;7.88;100.00;100856.91;5051404;28;20075;-69
2022/04/25 06:40:20;;;;;;;30.75;21.05;;;;;;;7.93;100.00;100855.25;5046965;28;20472;-71
2022/04/25 06:42:47;;;;;;;32.65;21.60;;;;;;;8.02;100.00;100866.81;5044964;28;20479;-69
2022/04/25 06:45:13;;;;;;;32.53;21.20;;;;;;;8.22;100.00;100858.31;5051149;28;20094;-71
2022/04/25 06:47:38;;;;;;;30.27;20.52;;;;;;;8.42;100.00;100865.59;5046272;28;20402;-70
2022/04/25 06:50:05;;;;;;;32.53;21.80;;;;;;;8.57;100.00;100873.75;5046776;28;20025;-70
2022/04/25 06:52:30;;;;;;;30.45;20.85;;;;;;;8.71;100.00;100863.41;5047319;28;20540;-69
2022/04/25 06:54:57;;;;;;;31.35;20.92;;;;;;;8.79;100.00;100868.75;5048770;28;20104;-70
2022/04/25 06:57:22;;;;;;;31.02;20.27;;;;;;;8.86;100.00;100867.97;5048266;28;20025;-67
2022/04/25 06:59:47;;;;;;;33.55;21.17;;;;;;;8.83;100.00;100874.06;5046824;28;20099;-69
2022/04/25 07:02:13;;;;;;;31.90;21.27;;;;;;;8.89;100.00;100874.13;5049374;28;20371;-65
2022/04/25 07:04:39;;;;;;;32.78;22.40;;;;;;;8.99;100.00;100875.13;5047092;28;20032;-65
2022/04/25 07:07:05;;;;;;;32.08;22.02;;;;;;;9.00;100.00;100874.28;5046374;28;20022;-66
2022/04/25 07:09:30;;;;;;;31.77;22.30;;;;;;;9.10;100.00;100877.91;5049708;28;20151;-66
2022/04/25 07:11:55;;;;;;;32.78;22.00;;;;;;;9.14;100.00;100877.06;5044286;28;20399;-66
2022/04/25 07:14:24;;;;;;;31.73;22.30;;;;;;;9.20;100.00;100878.88;5054399;28;20033;-65
2022/04/25 07:16:52;;;;;;;31.60;21.75;;;;;;;9.20;100.00;100881.50;5054280;28;20032;-65
2022/04/25 07:19:19;;;;;;;33.08;23.33;;;;;;;9.18;100.00;100880.63;5054736;28;20032;-66
2022/04/25 07:29:57;;;;;;;32.75;23.27;;;;;;;9.12;100.00;100888.47;5054218;28;20032;-65
2022/04/25 07:32:23;;;;;;;31.75;22.98;;;;;;;9.10;100.00;100887.56;5054037;28;20021;-65
2022/04/25 07:34:48;;;;;;;32.33;23.55;;;;;;;9.12;100.00;100891.13;5054200;28;20460;-65
2022/04/25 07:37:16;;;;;;;32.65;24.27;;;;;;;9.09;100.00;100891.97;5054097;28;20408;-65
2022/04/25 07:39:42;;;;;;;33.17;23.95;;;;;;;9.02;100.00;100896.25;5054027;28;20029;-65
2022/04/25 07:42:07;;;;;;;34.13;24.50;;;;;;;8.96;100.00;100892.69;5054120;28;20033;-66
2022/04/25 07:44:33;;;;;;;33.97;23.83;;;;;;;8.94;100.00;100895.31;5054065;28;20032;-65
2022/04/25 07:46:59;;;;;;;33.83;24.38;;;;;;;9.01;100.00;100898.88;5053819;28;20065;-65
2022/04/25 07:49:25;;;;;;;33.33;24.33;;;;;;;9.08;100.00;100898.09;5054205;28;20067;-64
2022/04/25 07:51:50;;;;;;;33.97;24.95;;;;;;;9.06;100.00;100898.06;5053777;28;20056;-65
2022/04/25 07:54:16;;;;;;;33.95;25.52;;;;;;;9.08;100.00;100898.09;5053575;28;20391;-65
2022/04/25 07:56:45;;;;;;;33.78;24.92;;;;;;;9.07;100.00;100907.75;5053700;28;20032;-65
2022/04/25 07:59:10;;;;;;;35.28;25.27;;;;;;;8.93;100.00;100903.16;5053499;28;20025;-64
2022/04/25 08:01:36;;;;;;;32.80;24.77;;;;;;;8.94;100.00;100911.13;5053618;28;20037;-66
2022/04/25 08:04:01;;;;;;;35.00;25.80;;;;;;;8.86;100.00;100913.66;5053765;28;20020;-65
2022/04/25 08:06:27;;;;;;;35.92;25.55;;;;;;;8.84;100.00;100917.13;5052726;28;20021;-65
2022/04/25 08:08:53;;;;;;;35.70;26.63;;;;;;;8.81;100.00;100912.72;5053856;28;20029;-65
2022/04/25 08:11:20;;;;;;;35.30;26.08;;;;;;;8.86;100.00;100920.69;5053221;28;20044;-65
2022/04/25 08:19:14;;;;;;;36.22;27.45;;;;;;;8.67;100.00;100927.47;5051218;28;20167;-65
2022/04/25 08:21:40;;;;;;;35.78;27.30;;;;;;;8.63;100.00;100931.78;5053160;28;20111;-66
2022/04/25 08:24:06;;;;;;;37.95;28.13;;;;;;;8.66;100.00;100936.22;5053048;28;20040;-67
2022/04/25 08:26:31;;;;;;;37.08;28.20;;;;;;;8.63;100.00;100938.81;5053366;28;20027;-66
2022/04/25 08:28:59;;;;;;;37.08;28.60;;;;;;;8.64;100.00;100941.47;5053327;28;20051;-66
2022/04/25 08:31:25;;;;;;;37.38;28.63;;;;;;;8.62;100.00;100937.97;5053043;28;20025;-66
2022/04/25 08:33:50;;;;;;;41.10;30.30;;;;;;;8.68;100.00;100945.06;5051626;28;20412;-67
2022/04/25 08:36:16;;;;;;;37.00;28.67;;;;;;;8.67;100.00;100946.78;5053395;28;20021;-66
2022/04/25 08:38:43;;;;;;;37.75;28.85;;;;;;;8.67;100.00;100956.47;5053036;28;20020;-66
2022/04/25 08:41:10;;;;;;;39.70;29.90;;;;;;;8.65;100.00;100953.81;5052847;28;20036;-66
2022/04/25 08:43:38;;;;;;;40.80;29.75;;;;;;;8.67;100.00;100957.34;5047400;28;20025;-66
2022/04/25 08:46:07;;;;;;;38.67;29.60;;;;;;;8.69;100.00;100960.00;5052666;28;20438;-66
2022/04/25 08:48:33;;;;;;;38.63;29.98;;;;;;;8.65;100.00;100961.72;5052234;28;20082;-67
2022/04/25 08:51:00;;;;;;;39.67;30.75;;;;;;;8.66;100.00;100960.81;5052462;28;20040;-66
2022/04/25 08:53:26;;;;;;;37.88;30.02;;;;;;;8.53;100.00;100964.16;5052055;28;20035;-66
2022/04/25 08:55:54;;;;;;;37.53;29.63;;;;;;;8.45;100.00;100966.69;5052711;28;20020;-66
2022/04/25 08:58:21;;;;;;;37.90;29.27;;;;;;;8.43;100.00;100964.84;5052642;28;20025;-66
2022/04/25 09:00:47;;;;;;;39.78;31.48;;;;;;;8.45;100.00;100965.81;5052554;28;20036;-65
2022/04/25 09:03:14;;;;;;;39.50;31.17;;;;;;;8.48;100.00;100971.13;5052506;28;20032;-66
2022/04/25 09:05:40;;;;;;;39.45;31.38;;;;;;;8.47;100.00;100982.50;5052633;28;20025;-66
2022/04/25 09:08:07;;;;;;;41.50;32.85;;;;;;;8.49;100.00;100980.78;5052313;28;20036;-66
2022/04/25 09:10:33;;;;;;;40.67;32.10;;;;;;;8.51;100.00;100981.69;5052348;28;20048;-66
2022/04/25 09:12:59;;;;;;;39.72;30.70;;;;;;;8.48;100.00;100992.19;5052547;28;20460;-65
2022/04/25 09:15:25;;;;;;;40.28;31.77;;;;;;;8.47;100.00;100990.41;5052357;28;20544;-67
2022/04/25 09:17:53;;;;;;;40.83;31.70;;;;;;;8.56;100.00;100990.53;5055603;28;20028;-66
2022/04/25 09:20:20;;;;;;;40.90;31.70;;;;;;;8.56;100.00;100995.81;5056604;28;20107;-67
2022/04/25 09:22:46;;;;;;;40.55;32.38;;;;;;;8.60;100.00;100992.38;5056299;28;20060;-67
2022/04/25 09:25:17;;;;;;;41.45;32.25;;;;;;;8.58;100.00;100996.75;5056466;28;20036;-66
2022/04/25 09:27:44;;;;;;;40.42;31.70;;;;;;;8.56;100.00;100995.81;5052648;28;20066;-66
2022/04/25 09:30:22;;;;;;;40.58;31.73;;;;;;;8.56;100.00;101003.72;5056661;28;20029;-66
2022/04/25 09:32:51;;;;;;;40.80;32.58;;;;;;;8.56;100.00;101001.09;5053490;28;20113;-66
2022/04/25 09:35:27;;;;;;;41.53;33.20;;;;;;;8.59;100.00;100995.88;5056038;28;20025;-67
2022/04/25 09:37:52;;;;;;;41.53;32.90;;;;;;;8.63;100.00;101002.06;5056386;28;20432;-66
2022/04/25 09:40:19;;;;;;;41.88;32.60;;;;;;;8.68;100.00;100997.78;5056216;28;20112;-67
2022/04/25 09:42:46;;;;;;;41.00;33.58;;;;;;;8.67;100.00;100998.63;5056237;28;20029;-66
2022/04/25 09:45:12;;;;;;;42.25;33.17;;;;;;;8.65;100.00;101000.34;5052303;28;20079;-66
2022/04/25 09:47:38;;;;;;;41.75;34.03;;;;;;;8.68;100.00;101003.03;5056123;28;20490;-65
2022/04/25 09:50:11;;;;;;;42.63;32.58;;;;;;;8.70;100.00;101010.09;5055733;28;20029;-67
2022/04/25 09:52:56;;;;;;;41.92;33.40;;;;;;;8.80;100.00;101002.34;5055903;28;20036;-66
2022/04/25 09:55:23;;;;;;;38.03;29.35;;;;;;;8.87;100.00;101007.69;5053098;28;20040;-66
2022/04/25 09:57:50;;;;;;;36.17;28.48;;;;;;;8.95;100.00;101009.56;5055880;28;20029;-66
2022/04/25 10:00:33;;;;;;;34.63;27.77;;;;;;;9.03;100.00;101010.56;5055551;28;20051;-66
2022/04/25 10:03:02;;;;;;;;;;;;;;;9.17;100.00;101016.00;5056297;28;20025;-66
2022/04/25 10:05:45;;;;;;;32.67;25.30;;;;;;;9.01;100.00;101018.44;5055577;28;19916;-66
2022/04/25 10:08:12;;;;;;;34.88;27.27;;;;;;;8.96;100.00;101014.84;5055587;28;20075;-67
2022/04/25 10:10:40;;;;;;;35.25;27.00;;;;;;;8.94;100.00;101019.22;5055574;28;20108;-66
2022/04/25 10:13:06;;;;;;;34.28;26.58;;;;;;;8.93;100.00;101030.63;5055373;28;20504;-66
2022/04/25 10:15:31;;;;;;;34.50;27.38;;;;;;;8.87;100.00;101027.91;5055700;28;20033;-66
2022/04/25 10:17:58;;;;;;;35.22;28.02;;;;;;;8.81;100.00;101033.06;5055491;28;20021;-64
2022/04/25 10:20:24;;;;;;;34.90;26.40;;;;;;;8.81;100.00;101027.81;5055528;28;20383;-64
2022/04/25 10:22:49;;;;;;;33.15;25.48;;;;;;;8.77;100.00;101040.06;5055354;28;20029;-66
2022/04/25 10:25:15;;;;;;;34.38;26.83;;;;;;;8.81;100.00;101033.06;5055477;28;20560;-66
2022/04/25 10:27:43;;;;;;;33.67;25.55;;;;;;;8.86;100.00;101036.69;5055042;28;20033;-66
2022/04/25 10:30:12;;;;;;;35.47;27.08;;;;;;;8.95;100.00;101038.56;5054545;28;20024;-66
2022/04/25 10:32:38;;;;;;;33.50;26.67;;;;;;;9.03;100.00;101034.28;5055180;28;20079;-66
2022/04/25 10:35:05;;;;;;;34.97;27.85;;;;;;;9.12;100.00;101038.81;5053731;28;20505;-66
2022/04/25 10:37:35;;;;;;;35.08;26.75;;;;;;;9.10;100.00;101041.44;5055097;28;20064;-66
2022/04/25 10:40:06;;;;;;;33.35;25.88;;;;;;;9.02;100.00;101053.59;5055067;28;20506;-66
2022/04/25 10:45:16;;;;;;;34.17;26.88;;;;;;;9.15;100.00;101055.53;5051744;28;20388;-66
2022/04/25 10:47:58;;;;;;;34.28;27.17;;;;;;;9.19;100.00;101051.22;5050840;28;20025;-66
2022/04/25 10:50:24;;;;;;;33.83;25.80;;;;;;;9.19;100.00;101056.50;5052164;28;20094;-66
2022/04/25 10:55:38;;;;;;;34.25;26.02;;;;;;;9.01;100.00;101063.28;5054407;28;20401;-66
2022/04/25 10:58:03;;;;;;;33.38;24.95;;;;;;;9.02;100.00;101070.31;5053849;28;20471;-67
2022/04/25 11:00:36;;;;;;;33.22;25.10;;;;;;;8.94;100.00;101069.31;5054537;28;20025;-66
2022/04/25 11:03:17;;;;;;;33.10;24.30;;;;;;;9.02;100.00;101062.41;5054683;28;20047;-66
2022/04/25 11:05:47;;;;;;;32.28;23.85;;;;;;;9.07;100.00;101058.09;5050890;28;20057;-66
2022/04/25 11:08:18;;;;;;;33.17;24.58;;;;;;;9.21;100.00;101062.66;5050602;28;20063;-66
2022/04/25 11:10:45;;;;;;;32.20;23.65;;;;;;;9.28;100.00;101067.16;5050360;28;20147;-66
2022/04/25 11:13:16;;;;;;;33.28;24.02;;;;;;;9.35;100.00;101069.00;5054359;28;20480;-66
2022/04/25 11:15:42;;;;;;;31.38;22.95;;;;;;;9.40;100.00;101067.28;5050477;28;20472;-67
2022/04/25 11:18:33;;;;;;;32.15;23.10;;;;;;;9.46;100.00;101076.16;5054154;28;20029;-67
2022/04/25 11:21:05;;;;;;;31.38;22.45;;;;;;;9.38;100.00;101076.97;5052495;28;20104;-65
2022/04/25 11:23:32;;;;;;;31.73;22.90;;;;;;;9.31;100.00;101076.88;5054176;28;20029;-65
2022/04/25 11:25:59;;;;;;;32.60;22.80;;;;;;;9.28;100.00;101084.75;5054306;28;20468;-65
2022/04/25 11:28:25;;;;;;;32.55;22.58;;;;;;;9.29;100.00;101078.56;5054229;28;20025;-65
2022/04/25 11:31:13;;;;;;;30.95;22.50;;;;;;;9.31;100.00;101090.94;5054371;28;20118;-64
2022/04/25 11:33:49;;;;;;;32.35;23.30;;;;;;;9.38;100.00;101099.81;5053995;28;20031;-65
2022/04/25 11:36:15;;;;;;;33.63;24.30;;;;;;;9.41;100.00;101090.19;5050331;28;20025;-64
2022/04/25 11:41:29;;;;;;;32.30;22.85;;;;;;;9.67;100.00;101096.66;5050891;28;20067;-64